sensor_id;sensor_type;location;lat;lon;timestamp;P1;P2;P0
74434;PMS7003;62867;52.038;29.256;2023-04-24T00:01:43;22.4;17;11.6
74434;PMS7003;62867;52.038;29.256;2023-04-24T00:06:09;19.8;16.8;11
74434;PMS7003;62867;52.038;29.256;2023-04-24T00:11:19;20.8;16;10.8
74434;PMS7003;62867;52.038;29.256;2023-04-24T00:16:57;20;16.8;12
74434;PMS7003;62867;52.038;29.256;2023-04-24T00:21:31;24.4;19;12.4
74434;PMS7003;62867;52.038;29.256;2023-04-24T00:26:31;20.6;18.8;13
74434;PMS7003;62867;52.038;29.256;2023-04-24T00:31:43;22.4;19;12.6
74434;PMS7003;62867;52.038;29.256;2023-04-24T00:36:09;22.4;18;12.2
74434;PMS7003;62867;52.038;29.256;2023-04-24T00:41:19;20.8;18;12.8
74434;PMS7003;62867;52.038;29.256;2023-04-24T00:46:43;22.2;17.4;11.8
74434;PMS7003;62867;52.038;29.256;2023-04-24T00:51:55;22.2;17.4;12.6
74434;PMS7003;62867;52.038;29.256;2023-04-24T00:56:57;20.4;17.6;11.8
74434;PMS7003;62867;52.038;29.256;2023-04-24T01:01:33;19.6;17;11.2
74434;PMS7003;62867;52.038;29.256;2023-04-24T01:06:57;19.4;14.8;10
74434;PMS7003;62867;52.038;29.256;2023-04-24T01:11:45;20.2;17.4;11
74434;PMS7003;62867;52.038;29.256;2023-04-24T01:16:33;19.4;14.8;10.6
74434;PMS7003;62867;52.038;29.256;2023-04-24T01:21:31;19.6;15.4;10.8
74434;PMS7003;62867;52.038;29.256;2023-04-24T01:26:43;21.6;17.4;11.4
74434;PMS7003;62867;52.038;29.256;2023-04-24T01:31:09;18.4;16.6;11.2
74434;PMS7003;62867;52.038;29.256;2023-04-24T01:36:11;19;16.2;10.8
74434;PMS7003;62867;52.038;29.256;2023-04-24T01:41:57;21.8;17.2;12
74434;PMS7003;62867;52.038;29.256;2023-04-24T01:46:19;23;18;11.5
74434;PMS7003;62867;52.038;29.256;2023-04-24T01:51:57;21.2;17;12.2
74434;PMS7003;62867;52.038;29.256;2023-04-24T01:56:21;19.8;17.2;11.8
74434;PMS7003;62867;52.038;29.256;2023-04-24T02:01:33;21.2;17.4;12
74434;PMS7003;62867;52.038;29.256;2023-04-24T02:06:45;22.6;17;11.4
74434;PMS7003;62867;52.038;29.256;2023-04-24T02:11:31;22;18.2;12.4
74434;PMS7003;62867;52.038;29.256;2023-04-24T02:16:19;23;20.2;12.8
74434;PMS7003;62867;52.038;29.256;2023-04-24T02:21:43;21.4;18.4;12.8
74434;PMS7003;62867;52.038;29.256;2023-04-24T02:26:55;21.2;18.8;12.6
74434;PMS7003;62867;52.038;29.256;2023-04-24T02:31:29;24.6;20.2;12.8
74434;PMS7003;62867;52.038;29.256;2023-04-24T02:36:09;23;18.4;11.4
74434;PMS7003;62867;52.038;29.256;2023-04-24T02:41:55;24.2;18.6;11.8
74434;PMS7003;62867;52.038;29.256;2023-04-24T02:46:57;25.5;19.8;13.8
74434;PMS7003;62867;52.038;29.256;2023-04-24T02:51:29;21.8;18;12.8
74434;PMS7003;62867;52.038;29.256;2023-04-24T02:56:21;20.4;18.4;13
74434;PMS7003;62867;52.038;29.256;2023-04-24T03:01:57;22.4;20.2;12.4
74434;PMS7003;62867;52.038;29.256;2023-04-24T03:06:35;22.6;18.8;12.6
74434;PMS7003;62867;52.038;29.256;2023-04-24T03:11:09;23;19.2;12.8
74434;PMS7003;62867;52.038;29.256;2023-04-24T03:16:09;23.6;19.4;13
74434;PMS7003;62867;52.038;29.256;2023-04-24T03:21:57;20.6;18.2;13
74434;PMS7003;62867;52.038;29.256;2023-04-24T03:26:19;23.2;18.6;12.6
74434;PMS7003;62867;52.038;29.256;2023-04-24T03:31:31;24.2;18.8;12.6
74434;PMS7003;62867;52.038;29.256;2023-04-24T03:36:57;22;18.8;13.4
74434;PMS7003;62867;52.038;29.256;2023-04-24T03:41:09;23;20;13.4
74434;PMS7003;62867;52.038;29.256;2023-04-24T03:46:09;20;17.3;12.5
74434;PMS7003;62867;52.038;29.256;2023-04-24T03:51:43;25.2;20.8;13.4
74434;PMS7003;62867;52.038;29.256;2023-04-24T03:56:31;22.8;18.8;13.2
74434;PMS7003;62867;52.038;29.256;2023-04-24T04:01:45;21.8;19.6;13.2
74434;PMS7003;62867;52.038;29.256;2023-04-24T04:06:31;22.6;19.4;12.6
74434;PMS7003;62867;52.038;29.256;2023-04-24T04:11:57;22.6;20.2;13
74434;PMS7003;62867;52.038;29.256;2023-04-24T04:16:43;22;19.2;12
74434;PMS7003;62867;52.038;29.256;2023-04-24T04:21:55;21.4;19.4;12.2
74434;PMS7003;62867;52.038;29.256;2023-04-24T04:26:31;19.8;16.6;11.4
74434;PMS7003;62867;52.038;29.256;2023-04-24T04:31:57;23.2;17.6;11.4
74434;PMS7003;62867;52.038;29.256;2023-04-24T04:36:09;19.8;16.2;11
74434;PMS7003;62867;52.038;29.256;2023-04-24T04:41:45;21.8;17.6;11.6
74434;PMS7003;62867;52.038;29.256;2023-04-24T04:46:55;22.3;18.3;12.3
74434;PMS7003;62867;52.038;29.256;2023-04-24T04:51:09;21.8;18.6;12
74434;PMS7003;62867;52.038;29.256;2023-04-24T04:56:57;21.2;17.2;12
74434;PMS7003;62867;52.038;29.256;2023-04-24T05:01:45;19;17.2;12.2
74434;PMS7003;62867;52.038;29.256;2023-04-24T05:06:19;22.2;19.4;11.6
74434;PMS7003;62867;52.038;29.256;2023-04-24T05:11:45;18.8;15.8;11.4
74434;PMS7003;62867;52.038;29.256;2023-04-24T05:16:09;19;16.8;11.8
74434;PMS7003;62867;52.038;29.256;2023-04-24T05:21:31;19.2;15.6;11
74434;PMS7003;62867;52.038;29.256;2023-04-24T05:26:41;20;16.2;11
74434;PMS7003;62867;52.038;29.256;2023-04-24T05:31:45;21.4;17.2;11.6
74434;PMS7003;62867;52.038;29.256;2023-04-24T05:36:19;23.4;21;12.8
74434;PMS7003;62867;52.038;29.256;2023-04-24T05:41:19;21.4;17.6;11.6
74434;PMS7003;62867;52.038;29.256;2023-04-24T05:46:53;22;17;11.5
74434;PMS7003;62867;52.038;29.256;2023-04-24T05:51:55;14.6;12.2;8
74434;PMS7003;62867;52.038;29.256;2023-04-24T05:56:45;16.2;13.4;9.4
74434;PMS7003;62867;52.038;29.256;2023-04-24T06:01:09;13.6;10.8;7.8
74434;PMS7003;62867;52.038;29.256;2023-04-24T06:06:55;12.6;11.8;8.2
74434;PMS7003;62867;52.038;29.256;2023-04-24T06:11:43;16.2;13.4;8.6
74434;PMS7003;62867;52.038;29.256;2023-04-24T06:16:09;14.2;12;8.2
74434;PMS7003;62867;52.038;29.256;2023-04-24T06:21:17;13.2;11.8;8
74434;PMS7003;62867;52.038;29.256;2023-04-24T06:26:53;16;12.6;8.6
74434;PMS7003;62867;52.038;29.256;2023-04-24T06:31:33;16;14;9.4
74434;PMS7003;62867;52.038;29.256;2023-04-24T06:36:17;20.2;16.6;10.6
74434;PMS7003;62867;52.038;29.256;2023-04-24T06:41:53;16.8;14.8;10
74434;PMS7003;62867;52.038;29.256;2023-04-24T06:46:09;16;12.6;8.8
74434;PMS7003;62867;52.038;29.256;2023-04-24T06:51:31;15.3;13.3;9.5
74434;PMS7003;62867;52.038;29.256;2023-04-24T06:56:39;17.4;14.2;9.8
74434;PMS7003;62867;52.038;29.256;2023-04-24T07:01:29;16;13.4;8.8
74434;PMS7003;62867;52.038;29.256;2023-04-24T07:06:43;16.6;14.2;9.4
74434;PMS7003;62867;52.038;29.256;2023-04-24T07:11:29;15;13.6;9.6
74434;PMS7003;62867;52.038;29.256;2023-04-24T07:16:55;17;14.4;9.2
74434;PMS7003;62867;52.038;29.256;2023-04-24T07:21:55;16.6;13.6;9.4
74434;PMS7003;62867;52.038;29.256;2023-04-24T07:26:55;14.6;12.8;8.6
74434;PMS7003;62867;52.038;29.256;2023-04-24T07:31:10;14.6;11.8;8.2
74434;PMS7003;62867;52.038;29.256;2023-04-24T07:36:57;13.6;11.2;7.4
74434;PMS7003;62867;52.038;29.256;2023-04-24T07:41:29;13.6;12;8.8
74434;PMS7003;62867;52.038;29.256;2023-04-24T07:46:45;16.4;13.6;9.4
74434;PMS7003;62867;52.038;29.256;2023-04-24T07:51:21;15.3;13.3;8.5
74434;PMS7003;62867;52.038;29.256;2023-04-24T07:56:09;12;10;7
74434;PMS7003;62867;52.038;29.256;2023-04-24T08:01:43;13.4;11.6;7.6
74434;PMS7003;62867;52.038;29.256;2023-04-24T08:06:09;15.8;13.4;8.6
74434;PMS7003;62867;52.038;29.256;2023-04-24T08:11:43;14.6;12;8
74434;PMS7003;62867;52.038;29.256;2023-04-24T08:16:57;13.6;12.2;7.8
74434;PMS7003;62867;52.038;29.256;2023-04-24T08:21:55;12.4;10.4;7.2
74434;PMS7003;62867;52.038;29.256;2023-04-24T08:26:09;10.8;9;6
74434;PMS7003;62867;52.038;29.256;2023-04-24T08:31:45;11.6;8.8;5.4
74434;PMS7003;62867;52.038;29.256;2023-04-24T08:36:11;12;8.4;6
74434;PMS7003;62867;52.038;29.256;2023-04-24T08:41:47;7.4;6.2;4.2
74434;PMS7003;62867;52.038;29.256;2023-04-24T08:46:33;9.8;8;5.2
74434;PMS7003;62867;52.038;29.256;2023-04-24T08:51:59;11.5;10.3;6.5
74434;PMS7003;62867;52.038;29.256;2023-04-24T08:57:00;8.4;6.8;4
74434;PMS7003;62867;52.038;29.256;2023-04-24T09:01:33;8.4;7.2;5
74434;PMS7003;62867;52.038;29.256;2023-04-24T09:06:09;8.2;6.8;4
74434;PMS7003;62867;52.038;29.256;2023-04-24T09:11:57;8.2;6.2;4
74434;PMS7003;62867;52.038;29.256;2023-04-24T09:16:45;7.2;5.6;3.6
74434;PMS7003;62867;52.038;29.256;2023-04-24T09:21:31;6;5.4;3.4
74434;PMS7003;62867;52.038;29.256;2023-04-24T09:26:09;10.4;9.6;6.4
74434;PMS7003;62867;52.038;29.256;2023-04-24T09:31:57;9.4;7.6;5.2
74434;PMS7003;62867;52.038;29.256;2023-04-24T09:36:26;12.4;11;7.6
74434;PMS7003;62867;52.038;29.256;2023-04-24T09:41:31;9;7.2;5.2
74434;PMS7003;62867;52.038;29.256;2023-04-24T09:46:58;7.4;5.8;3.8
74434;PMS7003;62867;52.038;29.256;2023-04-24T09:51:47;7.3;6.3;4
74434;PMS7003;62867;52.038;29.256;2023-04-24T09:56:21;10;8.8;5.8
74434;PMS7003;62867;52.038;29.256;2023-04-24T10:01:33;14.8;13.4;9.2
74434;PMS7003;62867;52.038;29.256;2023-04-24T10:06:32;15.2;13;9.2
74434;PMS7003;62867;52.038;29.256;2023-04-24T10:11:47;13.8;10.4;7
74434;PMS7003;62867;52.038;29.256;2023-04-24T10:16:52;9.6;8;5.2
74434;PMS7003;62867;52.038;29.256;2023-04-24T10:21:59;11.2;9;6.2
74434;PMS7003;62867;52.038;29.256;2023-04-24T10:26:45;8.4;7;4.8
74434;PMS7003;62867;52.038;29.256;2023-04-24T10:31:59;11.6;10.6;7.6
74434;PMS7003;62867;52.038;29.256;2023-04-24T10:36:09;8.4;8;5.4
74434;PMS7003;62867;52.038;29.256;2023-04-24T10:41:59;9;8.2;5.8
74434;PMS7003;62867;52.038;29.256;2023-04-24T10:46:31;15;12;8.6
74434;PMS7003;62867;52.038;29.256;2023-04-24T10:51:46;18.3;16.5;11.5
74434;PMS7003;62867;52.038;29.256;2023-04-24T10:56:09;14.8;13.4;8.4
74434;PMS7003;62867;52.038;29.256;2023-04-24T11:01:09;9.2;8.8;5.6
74434;PMS7003;62867;52.038;29.256;2023-04-24T11:06:33;13.6;11.4;8.2
74434;PMS7003;62867;52.038;29.256;2023-04-24T11:11:10;11.2;9.8;6.8
74434;PMS7003;62867;52.038;29.256;2023-04-24T11:16:12;9.6;8.2;5.6
74434;PMS7003;62867;52.038;29.256;2023-04-24T11:21:59;9.4;8.6;5.8
74434;PMS7003;62867;52.038;29.256;2023-04-24T11:26:58;8.2;7.4;4.8
74434;PMS7003;62867;52.038;29.256;2023-04-24T11:31:39;9.2;8;5.6
74434;PMS7003;62867;52.038;29.256;2023-04-24T11:36:35;7.8;7.2;5
74434;PMS7003;62867;52.038;29.256;2023-04-24T11:41:45;8.2;7.8;4.8
74434;PMS7003;62867;52.038;29.256;2023-04-24T11:46:47;8.2;7;5
74434;PMS7003;62867;52.038;29.256;2023-04-24T11:51:09;8.8;7.8;5
74434;PMS7003;62867;52.038;29.256;2023-04-24T11:56:44;10.3;8.8;5.5
74434;PMS7003;62867;52.038;29.256;2023-04-24T12:01:59;8.8;8;5.4
74434;PMS7003;62867;52.038;29.256;2023-04-24T12:07:03;9;6.8;5
74434;PMS7003;62867;52.038;29.256;2023-04-24T12:11:31;7.6;6.4;4.4
74434;PMS7003;62867;52.038;29.256;2023-04-24T12:16:59;7;6.4;4.2
74434;PMS7003;62867;52.038;29.256;2023-04-24T12:21:59;7.2;6.6;4.4
74434;PMS7003;62867;52.038;29.256;2023-04-24T12:26:31;9.6;7.4;5.2
74434;PMS7003;62867;52.038;29.256;2023-04-24T12:31:09;7.8;6.4;4.6
74434;PMS7003;62867;52.038;29.256;2023-04-24T12:36:45;7.6;6.2;4.6
74434;PMS7003;62867;52.038;29.256;2023-04-24T12:41:33;7.8;6.6;5
74434;PMS7003;62867;52.038;29.256;2023-04-24T12:46:45;6;6;4
74434;PMS7003;62867;52.038;29.256;2023-04-24T12:51:59;7.4;6.4;4.6
74434;PMS7003;62867;52.038;29.256;2023-04-24T12:56:21;7.3;6.3;4.3
74434;PMS7003;62867;52.038;29.256;2023-04-24T13:01:59;7.2;7;5.2
74434;PMS7003;62867;52.038;29.256;2023-04-24T13:06:31;7.2;6.8;4.6
74434;PMS7003;62867;52.038;29.256;2023-04-24T13:11:09;8;5.6;4.2
74434;PMS7003;62867;52.038;29.256;2023-04-24T13:16:47;9;7.6;4.6
74434;PMS7003;62867;52.038;29.256;2023-04-24T13:21:19;7.6;7.2;5
74434;PMS7003;62867;52.038;29.256;2023-04-24T13:26:19;8.4;6.6;5
74434;PMS7003;62867;52.038;29.256;2023-04-24T13:31:45;9.2;7.4;5.4
74434;PMS7003;62867;52.038;29.256;2023-04-24T13:36:59;8;7;5.4
74434;PMS7003;62867;52.038;29.256;2023-04-24T13:41:32;11.2;8.6;5.2
74434;PMS7003;62867;52.038;29.256;2023-04-24T13:46:33;9.4;7.2;4.8
74434;PMS7003;62867;52.038;29.256;2023-04-24T13:51:57;9.4;8.6;5.6
74434;PMS7003;62867;52.038;29.256;2023-04-24T13:56:57;9;6.8;5.3
74434;PMS7003;62867;52.038;29.256;2023-04-24T14:01:33;8.2;7.2;4.6
74434;PMS7003;62867;52.038;29.256;2023-04-24T14:06:09;8.2;7.2;5.2
74434;PMS7003;62867;52.038;29.256;2023-04-24T14:11:57;9.4;7.8;4.8
74434;PMS7003;62867;52.038;29.256;2023-04-24T14:16:45;8.2;7;4.8
74434;PMS7003;62867;52.038;29.256;2023-04-24T14:21:21;9.6;7.8;5.4
74434;PMS7003;62867;52.038;29.256;2023-04-24T14:26:43;10.8;8.4;6
74434;PMS7003;62867;52.038;29.256;2023-04-24T14:31:57;8;6.6;4.6
74434;PMS7003;62867;52.038;29.256;2023-04-24T14:36:09;9.2;7;4.8
74434;PMS7003;62867;52.038;29.256;2023-04-24T14:41:09;8.6;7.2;5.2
74434;PMS7003;62867;52.038;29.256;2023-04-24T14:46:59;11.8;9.6;7
74434;PMS7003;62867;52.038;29.256;2023-04-24T14:51:47;12.6;10;6.4
74434;PMS7003;62867;52.038;29.256;2023-04-24T14:56:33;10.3;8.3;5.8
74434;PMS7003;62867;52.038;29.256;2023-04-24T15:01:43;14.4;12.4;8.6
74434;PMS7003;62867;52.038;29.256;2023-04-24T15:06:21;13.4;10.8;7.2
74434;PMS7003;62867;52.038;29.256;2023-04-24T15:11:47;28;22.4;13.2
74434;PMS7003;62867;52.038;29.256;2023-04-24T15:16:21;12.8;11;7.2
74434;PMS7003;62867;52.038;29.256;2023-04-24T15:21:59;12;10;6.8
74434;PMS7003;62867;52.038;29.256;2023-04-24T15:26:43;12.6;10.2;6.8
74434;PMS7003;62867;52.038;29.256;2023-04-24T15:31:57;17.8;14.4;9.2
74434;PMS7003;62867;52.038;29.256;2023-04-24T15:36:09;16.4;14;9.4
74434;PMS7003;62867;52.038;29.256;2023-04-24T15:41:57;12.2;9.2;6.4
74434;PMS7003;62867;52.038;29.256;2023-04-24T15:46:09;13;12.2;8.6
74434;PMS7003;62867;52.038;29.256;2023-04-24T15:51:45;18.4;14.4;9
74434;PMS7003;62867;52.038;29.256;2023-04-24T15:56:09;14.3;12.5;8.8
74434;PMS7003;62867;52.038;29.256;2023-04-24T16:01:09;12.8;11.4;7.4
74434;PMS7003;62867;52.038;29.256;2023-04-24T16:06:45;17.4;14.4;9
74434;PMS7003;62867;52.038;29.256;2023-04-24T16:11:21;15.8;13;8.2
74434;PMS7003;62867;52.038;29.256;2023-04-24T16:16:19;12.8;11.4;7.8
74434;PMS7003;62867;52.038;29.256;2023-04-24T16:21:59;14.8;13.2;8.4
74434;PMS7003;62867;52.038;29.256;2023-04-24T16:26:57;13;11.8;8.2
74434;PMS7003;62867;52.038;29.256;2023-04-24T16:31:19;11.8;11;7.4
74434;PMS7003;62867;52.038;29.256;2023-04-24T16:36:45;14.2;12.4;8.6
74434;PMS7003;62867;52.038;29.256;2023-04-24T16:41:45;16.6;14.6;9.8
74434;PMS7003;62867;52.038;29.256;2023-04-24T16:46:59;16.8;14.4;10.4
74434;PMS7003;62867;52.038;29.256;2023-04-24T16:51:09;15.2;13.2;9
74434;PMS7003;62867;52.038;29.256;2023-04-24T16:56:57;11.6;11.4;7.4
74434;PMS7003;62867;52.038;29.256;2023-04-24T17:01:59;13.3;12;8.8
74434;PMS7003;62867;52.038;29.256;2023-04-24T17:06:09;13;12.2;8.4
74434;PMS7003;62867;52.038;29.256;2023-04-24T17:11:09;17.8;14.8;10
74434;PMS7003;62867;52.038;29.256;2023-04-24T17:16:59;17;14.6;10.8
74434;PMS7003;62867;52.038;29.256;2023-04-24T17:21:47;15.8;14.6;10.4
74434;PMS7003;62867;52.038;29.256;2023-04-24T17:26:09;19.4;16.4;10.4
74434;PMS7003;62867;52.038;29.256;2023-04-24T17:31:33;24;20;12.2
74434;PMS7003;62867;52.038;29.256;2023-04-24T17:36:59;19.4;15.8;10.4
74434;PMS7003;62867;52.038;29.256;2023-04-24T17:41:31;20.8;16.8;11.4
74434;PMS7003;62867;52.038;29.256;2023-04-24T17:46:31;19;16.2;11
74434;PMS7003;62867;52.038;29.256;2023-04-24T17:51:59;20.4;16.2;10.4
74434;PMS7003;62867;52.038;29.256;2023-04-24T17:56:09;21;18.6;11.8
74434;PMS7003;62867;52.038;29.256;2023-04-24T18:01:33;23;19.3;13.8
74434;PMS7003;62867;52.038;29.256;2023-04-24T18:06:45;22.6;20.2;13.8
74434;PMS7003;62867;52.038;29.256;2023-04-24T18:11:21;21.4;17.2;12.6
74434;PMS7003;62867;52.038;29.256;2023-04-24T18:16:47;23;19.4;12.6
74434;PMS7003;62867;52.038;29.256;2023-04-24T18:21:33;23;19.6;13.8
74434;PMS7003;62867;52.038;29.256;2023-04-24T18:26:59;22.6;19.4;13.8
74434;PMS7003;62867;52.038;29.256;2023-04-24T18:31:45;23;19.4;13.4
74434;PMS7003;62867;52.038;29.256;2023-04-24T18:36:57;23.6;20;13.2
74434;PMS7003;62867;52.038;29.256;2023-04-24T18:41:19;24;20.2;13.4
74434;PMS7003;62867;52.038;29.256;2023-04-24T18:46:59;26.6;21.6;13.8
74434;PMS7003;62867;52.038;29.256;2023-04-24T18:51:21;25.8;22.8;14.6
74434;PMS7003;62867;52.038;29.256;2023-04-24T18:56:45;24;19.6;12.6
74434;PMS7003;62867;52.038;29.256;2023-04-24T19:01:21;22.5;19;13
74434;PMS7003;62867;52.038;29.256;2023-04-24T19:06:09;23;19.8;12.8
74434;PMS7003;62867;52.038;29.256;2023-04-24T19:11:45;21.4;18.4;12.8
74434;PMS7003;62867;52.038;29.256;2023-04-24T19:16:19;19;17.2;12
74434;PMS7003;62867;52.038;29.256;2023-04-24T19:21:31;20.8;18.4;11.6
74434;PMS7003;62867;52.038;29.256;2023-04-24T19:26:59;23;16.6;11.8
74434;PMS7003;62867;52.038;29.256;2023-04-24T19:31:47;20.4;17.6;11.8
74434;PMS7003;62867;52.038;29.256;2023-04-24T19:36:09;21.6;16.8;11.2
74434;PMS7003;62867;52.038;29.256;2023-04-24T19:41:45;20.8;17.8;12.6
74434;PMS7003;62867;52.038;29.256;2023-04-24T19:46:45;22.2;17.8;11.8
74434;PMS7003;62867;52.038;29.256;2023-04-24T19:51:31;21.8;18.2;12
74434;PMS7003;62867;52.038;29.256;2023-04-24T19:56:45;21;18.2;11.8
74434;PMS7003;62867;52.038;29.256;2023-04-24T20:01:43;23.8;17.5;11.5
74434;PMS7003;62867;52.038;29.256;2023-04-24T20:06:59;22.4;18.8;12
74434;PMS7003;62867;52.038;29.256;2023-04-24T20:11:59;22.2;17.6;11.2
74434;PMS7003;62867;52.038;29.256;2023-04-24T20:16:09;21.2;16.8;10.8
74434;PMS7003;62867;52.038;29.256;2023-04-24T20:21:59;20.8;18.6;12
74434;PMS7003;62867;52.038;29.256;2023-04-24T20:26:47;22.2;19.6;12.4
74434;PMS7003;62867;52.038;29.256;2023-04-24T20:31:21;21.4;16.8;12
74434;PMS7003;62867;52.038;29.256;2023-04-24T20:36:21;21.8;18.2;11.6
74434;PMS7003;62867;52.038;29.256;2023-04-24T20:41:43;21.2;17.8;11.6
74434;PMS7003;62867;52.038;29.256;2023-04-24T20:46:31;22.8;19.4;12.2
74434;PMS7003;62867;52.038;29.256;2023-04-24T20:51:31;20.6;17;11.6
74434;PMS7003;62867;52.038;29.256;2023-04-24T20:56:57;21;17;11
74434;PMS7003;62867;52.038;29.256;2023-04-24T21:01:19;22;17.5;12
74434;PMS7003;62867;52.038;29.256;2023-04-24T21:06:33;22;18.2;11.4
74434;PMS7003;62867;52.038;29.256;2023-04-24T21:11:41;21.8;17.6;11.2
74434;PMS7003;62867;52.038;29.256;2023-04-24T21:16:21;20;17;11
74434;PMS7003;62867;52.038;29.256;2023-04-24T21:21:45;21.6;18.8;11.6
74434;PMS7003;62867;52.038;29.256;2023-04-24T21:26:31;21;18.2;10.8
74434;PMS7003;62867;52.038;29.256;2023-04-24T21:31:57;23.2;18.6;11.6
74434;PMS7003;62867;52.038;29.256;2023-04-24T21:36:47;19.4;17.4;11.4
74434;PMS7003;62867;52.038;29.256;2023-04-24T21:41:59;21.2;17.8;11.4
74434;PMS7003;62867;52.038;29.256;2023-04-24T21:46:19;21.6;18.8;12
74434;PMS7003;62867;52.038;29.256;2023-04-24T21:51:59;19.2;17.6;11.8
74434;PMS7003;62867;52.038;29.256;2023-04-24T21:56:35;20.8;18;12
74434;PMS7003;62867;52.038;29.256;2023-04-24T22:01:33;21.4;19.2;12
74434;PMS7003;62867;52.038;29.256;2023-04-24T22:06:21;21.3;18.5;11.3
74434;PMS7003;62867;52.038;29.256;2023-04-24T22:11:47;20;17.6;11.2
74434;PMS7003;62867;52.038;29.256;2023-04-24T22:16:47;24.2;18.6;12
74434;PMS7003;62867;52.038;29.256;2023-04-24T22:21:31;22;18.6;12.2
74434;PMS7003;62867;52.038;29.256;2023-04-24T22:26:31;20.4;17.8;11.4
74434;PMS7003;62867;52.038;29.256;2023-04-24T22:31:59;19.6;17;10.8
74434;PMS7003;62867;52.038;29.256;2023-04-24T22:36:59;19.6;18;11
74434;PMS7003;62867;52.038;29.256;2023-04-24T22:41:31;23.2;18.6;12.2
74434;PMS7003;62867;52.038;29.256;2023-04-24T22:46:47;20.2;17;10.6
74434;PMS7003;62867;52.038;29.256;2023-04-24T22:51:47;21.4;18.2;11.6
74434;PMS7003;62867;52.038;29.256;2023-04-24T22:56:35;22.2;19.2;11.8
74434;PMS7003;62867;52.038;29.256;2023-04-24T23:01:35;21.8;18.8;11
74434;PMS7003;62867;52.038;29.256;2023-04-24T23:06:57;23;18.8;11
74434;PMS7003;62867;52.038;29.256;2023-04-24T23:11:59;21.4;16.4;11.2
74434;PMS7003;62867;52.038;29.256;2023-04-24T23:16:59;23;19.4;12.2
74434;PMS7003;62867;52.038;29.256;2023-04-24T23:21:59;25.2;18.8;12
74434;PMS7003;62867;52.038;29.256;2023-04-24T23:26:59;21.8;17.6;11.4
74434;PMS7003;62867;52.038;29.256;2023-04-24T23:31:47;22.6;18;11.8
74434;PMS7003;62867;52.038;29.256;2023-04-24T23:36:09;20.4;16.4;11.2
74434;PMS7003;62867;52.038;29.256;2023-04-24T23:41:31;24.2;19;12.8
74434;PMS7003;62867;52.038;29.256;2023-04-24T23:46:37;24;20.2;12.2
74434;PMS7003;62867;52.038;29.256;2023-04-24T23:51:21;21.4;18.6;12.4
74434;PMS7003;62867;52.038;29.256;2023-04-24T23:56:43;25.4;19.2;12.8
